createdAt,value
2022-12-11T00:01:24.315Z,75.21
2022-12-11T00:03:50.955Z,75.44
2022-12-11T00:06:20.456Z,75.44
2022-12-11T00:08:47.458Z,75.32
2022-12-11T00:11:17.237Z,75.33
2022-12-11T00:13:44.035Z,75.53
2022-12-11T00:16:10.973Z,75.66
2022-12-11T00:18:37.898Z,75.04
2022-12-11T00:21:06.002Z,75.65
2022-12-11T00:23:32.852Z,75.46
2022-12-11T00:25:59.256Z,75.53
2022-12-11T00:28:25.645Z,75.61
2022-12-11T00:30:52.007Z,75.38
2022-12-11T00:33:18.410Z,75.25
2022-12-11T00:35:47.173Z,75.28
2022-12-11T00:38:16.759Z,75.34
2022-12-11T00:40:43.590Z,75.58
2022-12-11T00:43:10.447Z,75.42
2022-12-11T00:45:44.790Z,75.58
2022-12-11T00:48:12.402Z,75.17
2022-12-11T00:50:39.687Z,75.37
2022-12-11T00:53:07.250Z,75.62
2022-12-11T00:55:37.988Z,75.49
2022-12-11T00:58:05.065Z,75.34
2022-12-11T01:00:31.927Z,75.31
2022-12-11T01:02:58.489Z,75.32
2022-12-11T01:05:24.981Z,75.62
2022-12-11T01:07:51.399Z,75.75
2022-12-11T01:10:26.776Z,75.45
2022-12-11T01:12:55.778Z,75.75
2022-12-11T01:15:24.801Z,75.57
2022-12-11T01:17:51.667Z,75.62
2022-12-11T01:20:19.890Z,75.57
2022-12-11T01:22:46.446Z,75.34
2022-12-11T01:25:12.970Z,75.22
2022-12-11T01:27:39.733Z,75.34
2022-12-11T01:30:08.046Z,75.78
2022-12-11T01:32:36.010Z,75.69
2022-12-11T01:35:07.837Z,75.63
2022-12-11T01:37:34.981Z,75.64
2022-12-11T01:40:02.118Z,76.01
2022-12-11T01:42:31.541Z,75.23
2022-12-11T01:45:25.713Z,75.46
2022-12-11T01:48:27.658Z,75.56
2022-12-11T01:50:58.117Z,75.26
2022-12-11T01:53:38.557Z,75.81
2022-12-11T01:56:06.622Z,75.47
2022-12-11T01:58:38.547Z,75.63
2022-12-11T02:01:05.246Z,75.46
2022-12-11T02:03:31.846Z,75.55
2022-12-11T02:06:02.395Z,75.84
2022-12-11T02:08:29.368Z,76.03
2022-12-11T02:11:20.603Z,75.89
2022-12-11T02:17:06.626Z,75.51
2022-12-11T02:19:51.661Z,75.93
2022-12-11T02:22:50.014Z,75.67
2022-12-11T02:25:52.594Z,75.90
2022-12-11T02:28:30.087Z,75.59
2022-12-11T02:31:13.925Z,75.92
2022-12-11T02:33:49.017Z,75.62
2022-12-11T02:36:18.183Z,75.82
2022-12-11T02:38:50.673Z,75.82
2022-12-11T02:41:19.351Z,75.38
2022-12-11T02:43:47.488Z,75.86
2022-12-11T02:46:15.212Z,76.26
2022-12-11T02:48:42.738Z,76.01
2022-12-11T02:51:11.143Z,75.84
2022-12-11T02:53:40.316Z,75.76
2022-12-11T02:56:13.977Z,75.87
2022-12-11T02:58:47.650Z,75.94
2022-12-11T03:01:14.310Z,75.65
2022-12-11T03:03:40.790Z,75.90
2022-12-11T03:06:11.755Z,75.51
2022-12-11T03:08:38.171Z,75.72
2022-12-11T03:11:04.674Z,75.66
2022-12-11T03:13:31.531Z,75.94
2022-12-11T03:16:15.285Z,75.69
2022-12-11T03:18:50.774Z,75.41
2022-12-11T03:21:35.826Z,75.72
2022-12-11T03:24:11.310Z,76.10
2022-12-11T03:26:43.940Z,75.43
2022-12-11T03:29:19.118Z,76.06
2022-12-11T03:31:54.339Z,75.62
2022-12-11T03:34:37.026Z,75.48
2022-12-11T03:37:05.395Z,75.27
2022-12-11T03:39:35.858Z,75.38
2022-12-11T03:42:05.767Z,75.64
2022-12-11T03:44:35.302Z,75.99
2022-12-11T03:47:04.499Z,75.90
2022-12-11T03:49:36.702Z,75.69
2022-12-11T03:52:04.974Z,75.58
2022-12-11T03:54:31.614Z,75.69
2022-12-11T03:57:01.367Z,75.92
2022-12-11T03:59:27.878Z,75.89
2022-12-11T04:01:54.291Z,75.76
2022-12-11T04:04:21.133Z,75.80
2022-12-11T04:06:47.574Z,76.21
2022-12-11T04:09:14.133Z,75.94
2022-12-11T04:11:42.753Z,76.13
2022-12-11T04:14:30.987Z,76.21
2022-12-11T04:16:59.297Z,76.62
2022-12-11T04:19:44.457Z,76.28
2022-12-11T04:22:15.447Z,76.18
2022-12-11T04:24:41.849Z,76.40
2022-12-11T04:27:08.273Z,76.18
2022-12-11T04:29:34.718Z,76.33
2022-12-11T04:32:01.193Z,76.39
2022-12-11T04:34:27.622Z,76.12
2022-12-11T04:36:54.047Z,76.35
2022-12-11T04:39:20.467Z,76.52
2022-12-11T04:41:46.931Z,76.48
2022-12-11T04:44:13.457Z,76.37
2022-12-11T04:46:39.964Z,76.33
2022-12-11T04:49:06.423Z,76.26
2022-12-11T04:51:32.810Z,76.23
2022-12-11T04:53:59.540Z,76.38
2022-12-11T04:56:25.940Z,76.34
2022-12-11T04:58:52.324Z,76.12
2022-12-11T05:01:21.257Z,76.39
2022-12-11T05:03:48.634Z,76.22
2022-12-11T05:06:15.578Z,76.05
2022-12-11T05:08:43.138Z,76.20
2022-12-11T05:11:13.366Z,76.33
2022-12-11T05:13:39.783Z,76.00
2022-12-11T05:16:08.364Z,76.34
2022-12-11T05:18:35.077Z,76.39
2022-12-11T05:21:05.113Z,76.07
2022-12-11T05:23:31.883Z,76.20
2022-12-11T05:26:01.887Z,76.12
2022-12-11T05:28:31.899Z,76.23
2022-12-11T05:31:00.171Z,76.27
2022-12-11T05:33:27.089Z,76.16
2022-12-11T05:35:53.814Z,75.87
2022-12-11T05:38:20.689Z,76.18
2022-12-11T05:40:59.852Z,76.08
2022-12-11T05:43:28.119Z,75.87
2022-12-11T05:45:54.895Z,76.09
2022-12-11T05:48:21.719Z,76.05
2022-12-11T05:51:01.886Z,76.00
2022-12-11T05:53:29.209Z,76.07
2022-12-11T05:56:05.024Z,75.89
2022-12-11T05:58:32.010Z,76.14
2022-12-11T06:00:59.026Z,75.86
2022-12-11T06:03:25.521Z,76.03
2022-12-11T06:05:52.374Z,75.79
2022-12-11T06:08:19.007Z,75.89
2022-12-11T06:10:49.687Z,75.78
2022-12-11T06:13:16.702Z,75.60
2022-12-11T06:15:43.371Z,75.69
2022-12-11T06:18:09.971Z,75.63
2022-12-11T06:20:36.793Z,75.82
2022-12-11T06:23:03.587Z,75.69
2022-12-11T06:25:30.190Z,75.92
2022-12-11T06:27:56.734Z,75.05
2022-12-11T06:30:23.661Z,75.43
2022-12-11T06:33:05.743Z,75.39
2022-12-11T06:35:34.247Z,75.39
2022-12-11T06:38:05.090Z,75.55
2022-12-11T06:40:31.493Z,75.46
2022-12-11T06:42:57.853Z,75.64
2022-12-11T06:45:24.312Z,75.46
2022-12-11T06:47:50.743Z,75.64
2022-12-11T06:50:17.304Z,75.30
2022-12-11T06:52:43.661Z,75.44
2022-12-11T06:55:10.430Z,75.44
2022-12-11T06:57:37.080Z,75.39
2022-12-11T07:00:04.219Z,74.92
2022-12-11T07:02:30.654Z,74.78
2022-12-11T07:04:57.034Z,74.66
2022-12-11T07:07:23.577Z,75.04
2022-12-11T07:09:49.953Z,74.98
2022-12-11T07:12:17.123Z,74.89
2022-12-11T07:14:43.528Z,74.97
2022-12-11T07:17:09.914Z,75.04
2022-12-11T07:19:36.352Z,75.01
2022-12-11T07:22:02.806Z,74.67
2022-12-11T07:24:29.371Z,75.14
2022-12-11T07:26:55.897Z,74.87
2022-12-11T07:29:22.362Z,75.13
2022-12-11T07:31:48.889Z,74.98
2022-12-11T07:34:15.335Z,74.97
2022-12-11T07:36:42.415Z,74.80
2022-12-11T07:39:11.673Z,74.81
2022-12-11T07:41:38.769Z,74.94
2022-12-11T07:44:05.548Z,75.22
2022-12-11T07:46:33.929Z,74.88
2022-12-11T07:49:01.534Z,74.86
2022-12-11T07:51:30.857Z,75.05
2022-12-11T07:54:00.137Z,74.97
2022-12-11T07:56:28.154Z,74.92
2022-12-11T07:58:54.883Z,75.13
2022-12-11T08:01:26.503Z,74.95
2022-12-11T08:03:53.842Z,74.71
2022-12-11T08:06:25.838Z,74.98
2022-12-11T08:08:53.940Z,74.93
2022-12-11T08:11:20.328Z,75.00
2022-12-11T08:13:46.807Z,75.06
2022-12-11T08:16:15.427Z,74.98
2022-12-11T08:18:43.130Z,75.02
2022-12-11T08:21:13.179Z,74.01
2022-12-11T08:23:39.598Z,73.36
2022-12-11T08:26:07.571Z,73.23
2022-12-11T08:28:34.802Z,72.25
2022-12-11T08:31:05.064Z,72.23
2022-12-11T08:33:31.811Z,71.57
2022-12-11T08:35:58.629Z,72.01
2022-12-11T08:38:25.742Z,72.16
2022-12-11T08:40:52.203Z,71.91
2022-12-11T08:43:18.609Z,72.05
2022-12-11T08:45:46.515Z,72.41
2022-12-11T08:48:13.106Z,72.30
2022-12-11T08:50:39.568Z,72.62
2022-12-11T08:53:05.999Z,73.07
2022-12-11T08:55:33.071Z,72.99
2022-12-11T08:58:00.301Z,72.99
2022-12-11T09:00:26.690Z,72.99
2022-12-11T09:02:53.147Z,72.82
2022-12-11T09:05:19.641Z,73.14
2022-12-11T09:07:46.859Z,73.02
2022-12-11T09:10:13.369Z,73.60
2022-12-11T09:12:40.531Z,73.27
2022-12-11T09:15:07.480Z,73.40
2022-12-11T09:17:35.195Z,73.40
2022-12-11T09:20:01.984Z,73.54
2022-12-11T09:22:28.589Z,73.43
2022-12-11T09:24:55.093Z,73.46
2022-12-11T09:27:22.133Z,73.56
2022-12-11T09:29:48.592Z,73.68
2022-12-11T09:32:15.068Z,73.74
2022-12-11T09:34:41.559Z,73.67
2022-12-11T09:37:08.109Z,73.74
2022-12-11T09:39:34.486Z,73.48
2022-12-11T09:42:52.115Z,73.81
2022-12-11T09:45:18.891Z,73.72
2022-12-11T09:47:50.297Z,73.76
2022-12-11T09:50:26.043Z,73.74
2022-12-11T09:53:13.112Z,73.71
2022-12-11T09:55:45.906Z,73.48
2022-12-11T09:58:23.197Z,73.98
2022-12-11T10:00:57.803Z,73.72
2022-12-11T10:03:53.338Z,73.65
2022-12-11T10:06:34.982Z,73.89
2022-12-11T10:09:30.783Z,73.60
2022-12-11T10:12:03.160Z,73.44
2022-12-11T10:14:38.862Z,73.15
2022-12-11T10:17:29.015Z,73.05
2022-12-11T10:19:58.128Z,73.15
2022-12-11T10:22:30.307Z,73.10
2022-12-11T10:25:15.018Z,73.43
2022-12-11T10:27:41.783Z,73.09
2022-12-11T10:30:16.355Z,73.30
2022-12-11T10:32:51.610Z,73.30
2022-12-11T10:35:31.488Z,73.21
2022-12-11T10:38:14.394Z,73.40
2022-12-11T10:40:45.270Z,73.16
2022-12-11T10:43:12.375Z,73.58
2022-12-11T10:45:39.279Z,73.78
2022-12-11T10:48:14.776Z,73.76
2022-12-11T10:50:44.757Z,73.80
2022-12-11T10:53:31.261Z,73.58
2022-12-11T10:56:00.574Z,73.51
2022-12-11T10:58:33.780Z,73.70
2022-12-11T11:01:15.000Z,73.42
2022-12-11T11:03:54.944Z,73.85
2022-12-11T11:06:22.778Z,73.54
2022-12-11T11:08:58.058Z,73.61
2022-12-11T11:11:34.424Z,73.62
2022-12-11T11:14:09.858Z,73.39
2022-12-11T11:16:38.882Z,73.55
2022-12-11T11:19:06.492Z,73.42
2022-12-11T11:21:35.280Z,73.67
2022-12-11T11:24:02.039Z,73.89
2022-12-11T11:27:04.459Z,73.52
2022-12-11T11:29:30.003Z,73.85
2022-12-11T11:31:57.318Z,73.74
2022-12-11T11:34:26.012Z,73.52
2022-12-11T11:36:57.877Z,73.32
2022-12-11T11:39:35.797Z,73.12
2022-12-11T11:42:14.995Z,73.25
2022-12-11T11:44:57.490Z,73.12
2022-12-11T11:47:30.388Z,73.72
2022-12-11T11:50:16.275Z,76.36
2022-12-11T11:52:49.855Z,77.62
2022-12-11T11:55:39.885Z,78.48
2022-12-11T11:58:17.454Z,78.29
2022-12-11T12:00:43.900Z,79.03
2022-12-11T12:03:15.021Z,78.14
2022-12-11T12:06:14.749Z,77.41
2022-12-11T12:09:12.959Z,77.16
2022-12-11T12:12:13.357Z,76.88
2022-12-11T12:14:58.516Z,76.48
2022-12-11T12:17:36.158Z,76.22
2022-12-11T12:20:11.865Z,75.98
2022-12-11T12:23:01.593Z,75.59
2022-12-11T12:25:37.022Z,75.57
2022-12-11T12:28:30.453Z,75.03
2022-12-11T12:31:21.554Z,75.29
2022-12-11T12:33:50.942Z,75.22
2022-12-11T12:36:25.615Z,74.96
2022-12-11T12:39:00.909Z,75.09
2022-12-11T12:42:07.336Z,74.80
2022-12-11T12:44:59.483Z,74.74
2022-12-11T12:47:30.616Z,74.66
2022-12-11T12:49:59.885Z,74.52
2022-12-11T12:52:31.605Z,74.50
2022-12-11T12:55:14.744Z,74.64
2022-12-11T12:57:44.828Z,74.56
2022-12-11T13:00:14.634Z,74.60
2022-12-11T13:02:50.555Z,74.42
2022-12-11T13:05:32.802Z,74.57
2022-12-11T13:08:03.129Z,74.23
2022-12-11T13:10:35.685Z,74.11
2022-12-11T13:13:03.691Z,73.98
2022-12-11T13:15:32.000Z,74.31
2022-12-11T13:18:00.236Z,74.39
2022-12-11T13:20:30.337Z,74.41
2022-12-11T13:23:05.878Z,74.36
2022-12-11T13:25:45.635Z,74.21
2022-12-11T13:28:25.832Z,74.20
2022-12-11T13:31:07.582Z,74.16
2022-12-11T13:33:41.381Z,74.26
2022-12-11T13:36:16.705Z,74.27
2022-12-11T13:38:49.361Z,73.84
2022-12-11T13:41:17.722Z,74.12
2022-12-11T13:43:46.940Z,74.20
2022-12-11T13:46:17.782Z,74.30
2022-12-11T13:48:49.836Z,74.13
2022-12-11T13:51:21.983Z,74.22
2022-12-11T13:53:48.542Z,74.04
2022-12-11T13:56:22.610Z,74.27
2022-12-11T13:58:49.079Z,73.81
2022-12-11T14:01:23.716Z,73.80
2022-12-11T14:03:56.967Z,73.98
2022-12-11T14:06:25.030Z,73.88
2022-12-11T14:08:56.292Z,74.00
2022-12-11T14:11:29.927Z,74.01
2022-12-11T14:13:59.639Z,73.90
2022-12-11T14:16:27.741Z,73.81
2022-12-11T14:19:02.403Z,73.99
2022-12-11T14:21:28.926Z,73.78
2022-12-11T14:23:58.498Z,74.00
2022-12-11T14:26:30.652Z,73.94
2022-12-11T14:28:57.285Z,74.04
2022-12-11T14:31:31.942Z,73.51
2022-12-11T14:34:05.737Z,73.97
2022-12-11T14:36:35.134Z,74.00
2022-12-11T14:39:13.363Z,73.92
2022-12-11T14:41:45.605Z,73.74
2022-12-11T14:44:17.378Z,73.98
2022-12-11T14:46:52.098Z,73.86
2022-12-11T14:49:43.124Z,73.85
2022-12-11T14:52:20.023Z,73.97
2022-12-11T14:54:57.282Z,73.82
2022-12-11T14:57:28.311Z,73.57
2022-12-11T14:59:56.341Z,73.78
2022-12-11T15:02:33.487Z,73.72
2022-12-11T15:05:18.089Z,73.71
2022-12-11T15:08:24.635Z,73.37
2022-12-11T15:11:00.224Z,73.64
2022-12-11T15:13:26.789Z,74.08
2022-12-11T15:15:55.573Z,73.82
2022-12-11T15:18:29.078Z,73.73
2022-12-11T15:21:09.334Z,73.74
2022-12-11T15:23:44.743Z,73.65
2022-12-11T15:26:11.635Z,73.58
2022-12-11T15:28:39.186Z,73.72
2022-12-11T15:31:22.726Z,73.56
2022-12-11T15:33:49.097Z,73.69
2022-12-11T15:36:23.890Z,73.58
2022-12-11T15:38:50.389Z,73.51
2022-12-11T15:41:21.083Z,73.59
2022-12-11T15:43:47.981Z,74.11
2022-12-11T15:46:14.432Z,73.78
2022-12-11T15:48:40.798Z,73.44
2022-12-11T15:51:07.244Z,73.62
2022-12-11T15:53:33.799Z,73.61
2022-12-11T15:56:00.697Z,73.52
2022-12-11T15:58:27.458Z,73.46
2022-12-11T16:00:54.725Z,73.65
2022-12-11T16:03:22.757Z,73.67
2022-12-11T16:05:51.367Z,73.81
2022-12-11T16:08:20.926Z,73.70
2022-12-11T16:10:48.186Z,73.75
2022-12-11T16:13:15.052Z,73.66
2022-12-11T16:15:44.388Z,73.59
2022-12-11T16:18:17.558Z,73.70
2022-12-11T16:20:45.626Z,73.64
2022-12-11T16:23:14.323Z,73.63
2022-12-11T16:25:42.134Z,73.77
2022-12-11T16:28:10.581Z,73.73
2022-12-11T16:30:37.740Z,73.86
2022-12-11T16:33:11.744Z,73.29
2022-12-11T16:35:39.790Z,73.60
2022-12-11T16:38:06.444Z,73.91
2022-12-11T16:40:32.823Z,73.66
2022-12-11T16:42:59.178Z,73.50
2022-12-11T16:45:26.840Z,73.49
2022-12-11T16:47:53.357Z,73.60
2022-12-11T16:50:20.108Z,73.68
2022-12-11T16:52:47.262Z,73.60
2022-12-11T16:55:14.920Z,73.79
2022-12-11T16:57:41.739Z,73.76
2022-12-11T17:00:10.854Z,73.61
2022-12-11T17:02:37.279Z,73.85
2022-12-11T17:05:03.886Z,73.67
2022-12-11T17:07:32.516Z,73.71
2022-12-11T17:10:00.591Z,73.83
2022-12-11T17:12:27.899Z,73.66
2022-12-11T17:14:55.601Z,73.59
2022-12-11T17:17:22.171Z,73.71
2022-12-11T17:19:49.128Z,73.58
2022-12-11T17:22:15.562Z,74.06
2022-12-11T17:24:42.083Z,73.84
2022-12-11T17:27:08.585Z,73.28
2022-12-11T17:29:35.097Z,73.52
2022-12-11T17:32:03.093Z,73.96
2022-12-11T17:34:36.068Z,73.83
2022-12-11T17:37:04.625Z,73.76
2022-12-11T17:39:31.185Z,73.77
2022-12-11T17:41:57.673Z,73.87
2022-12-11T17:44:24.514Z,73.67
2022-12-11T17:46:51.070Z,73.73
2022-12-11T17:49:17.504Z,73.56
2022-12-11T17:51:43.913Z,73.87
2022-12-11T17:54:10.313Z,73.71
2022-12-11T17:56:36.881Z,73.78
2022-12-11T17:59:03.769Z,74.01
2022-12-11T18:01:30.315Z,73.87
2022-12-11T18:04:00.042Z,73.87
2022-12-11T18:06:27.551Z,73.83
2022-12-11T18:08:53.946Z,73.82
2022-12-11T18:11:23.757Z,73.70
2022-12-11T18:13:51.744Z,73.79
2022-12-11T18:16:19.770Z,73.77
2022-12-11T18:18:48.219Z,73.92
2022-12-11T18:21:26.879Z,73.79
2022-12-11T18:23:54.290Z,73.99
2022-12-11T18:26:21.258Z,73.75
2022-12-11T18:28:48.887Z,73.88
2022-12-11T18:31:16.282Z,73.81
2022-12-11T18:33:44.573Z,73.86
2022-12-11T18:36:13.462Z,74.06
2022-12-11T18:38:40.854Z,74.10
2022-12-11T18:41:09.101Z,73.86
2022-12-11T18:43:36.319Z,74.12
2022-12-11T18:46:07.712Z,73.98
2022-12-11T18:48:34.292Z,74.00
2022-12-11T18:51:01.049Z,73.79
2022-12-11T18:53:27.398Z,73.89
2022-12-11T18:55:59.998Z,74.20
2022-12-11T18:58:26.897Z,74.13
2022-12-11T19:00:53.315Z,73.93
2022-12-11T19:03:19.766Z,74.10
2022-12-11T19:05:46.197Z,74.11
2022-12-11T19:08:13.947Z,73.70
2022-12-11T19:10:42.682Z,73.86
2022-12-11T19:13:09.293Z,73.83
2022-12-11T19:15:44.209Z,73.96
2022-12-11T19:18:11.254Z,73.93
2022-12-11T19:20:55.645Z,73.93
2022-12-11T19:23:24.414Z,73.91
2022-12-11T19:25:51.153Z,73.92
2022-12-11T19:28:17.992Z,73.82
2022-12-11T19:30:47.440Z,74.08
2022-12-11T19:33:15.332Z,73.90
2022-12-11T19:35:41.974Z,73.66
2022-12-11T19:38:08.938Z,73.91
2022-12-11T19:40:43.172Z,73.87
2022-12-11T19:43:09.722Z,74.04
2022-12-11T19:45:36.714Z,73.75
2022-12-11T19:48:03.339Z,73.83
2022-12-11T19:50:29.823Z,73.48
2022-12-11T19:52:56.275Z,73.84
2022-12-11T19:55:22.675Z,73.67
2022-12-11T19:57:49.038Z,73.96
2022-12-11T20:00:15.834Z,73.52
2022-12-11T20:02:42.340Z,73.67
2022-12-11T20:05:09.346Z,73.54
2022-12-11T20:07:36.314Z,73.78
2022-12-11T20:10:02.785Z,73.42
2022-12-11T20:12:29.622Z,73.64
2022-12-11T20:14:56.013Z,73.77
2022-12-11T20:17:22.470Z,73.27
2022-12-11T20:19:48.854Z,73.56
2022-12-11T20:22:15.358Z,73.76
2022-12-11T20:24:41.827Z,73.38
2022-12-11T20:27:09.432Z,73.65
2022-12-11T20:29:35.912Z,73.69
2022-12-11T20:32:02.423Z,73.38
2022-12-11T20:34:28.978Z,73.21
2022-12-11T20:36:56.256Z,73.28
2022-12-11T20:39:22.728Z,73.21
2022-12-11T20:41:49.159Z,73.64
2022-12-11T20:44:15.614Z,73.45
2022-12-11T20:46:42.037Z,73.41
2022-12-11T20:49:12.854Z,73.61
2022-12-11T20:51:40.268Z,73.42
2022-12-11T20:54:06.873Z,73.32
2022-12-11T20:56:33.403Z,73.42
2022-12-11T20:59:00.696Z,73.46
2022-12-11T21:01:29.293Z,73.45
2022-12-11T21:03:55.969Z,73.45
2022-12-11T21:06:31.021Z,73.28
2022-12-11T21:08:59.621Z,73.30
2022-12-11T21:11:26.890Z,73.45
2022-12-11T21:13:54.151Z,73.27
2022-12-11T21:16:21.034Z,73.26
2022-12-11T21:18:48.426Z,73.13
2022-12-11T21:21:15.890Z,73.26
2022-12-11T21:23:42.735Z,73.37
2022-12-11T21:26:09.773Z,73.29
2022-12-11T21:28:36.181Z,73.17
2022-12-11T21:31:06.714Z,73.30
2022-12-11T21:33:33.770Z,73.32
2022-12-11T21:36:00.656Z,73.02
2022-12-11T21:38:27.791Z,73.19
2022-12-11T21:40:55.381Z,73.08
2022-12-11T21:43:22.413Z,73.51
2022-12-11T21:46:05.283Z,73.35
2022-12-11T21:48:31.888Z,73.29
2022-12-11T21:51:15.126Z,73.15
2022-12-11T21:53:42.042Z,73.19
2022-12-11T21:56:10.782Z,73.31
2022-12-11T21:58:38.800Z,73.31
2022-12-11T22:01:10.838Z,73.47
2022-12-11T22:03:37.256Z,73.31
2022-12-11T22:06:03.905Z,73.13
2022-12-11T22:08:30.427Z,72.91
2022-12-11T22:10:56.985Z,73.37
2022-12-11T22:13:23.745Z,73.11
2022-12-11T22:15:52.199Z,73.12
2022-12-11T22:18:19.143Z,73.18
2022-12-11T22:20:45.701Z,73.37
2022-12-11T22:23:12.475Z,73.60
2022-12-11T22:25:39.119Z,73.08
2022-12-11T22:28:05.485Z,73.21
2022-12-11T22:30:32.098Z,73.10
2022-12-11T22:32:58.593Z,73.18
2022-12-11T22:35:27.318Z,73.25
2022-12-11T22:37:54.378Z,73.16
2022-12-11T22:40:21.058Z,73.24
2022-12-11T22:42:47.575Z,73.00
2022-12-11T22:45:14.366Z,73.27
2022-12-11T22:47:41.157Z,73.31
2022-12-11T22:50:08.097Z,72.78
2022-12-11T22:52:34.756Z,73.21
2022-12-11T22:55:01.372Z,73.04
2022-12-11T22:57:27.878Z,72.82
2022-12-11T22:59:54.391Z,73.16
2022-12-11T23:02:20.856Z,73.27
2022-12-11T23:04:48.125Z,73.26
2022-12-11T23:07:14.740Z,73.03
2022-12-11T23:09:41.467Z,72.90
2022-12-11T23:12:08.127Z,73.03
2022-12-11T23:14:34.614Z,73.05
2022-12-11T23:17:01.039Z,72.85
2022-12-11T23:19:27.670Z,73.12
2022-12-11T23:21:54.259Z,73.20
2022-12-11T23:24:20.818Z,73.35
2022-12-11T23:26:48.141Z,73.09
2022-12-11T23:29:14.745Z,73.10
2022-12-11T23:31:41.201Z,72.88
2022-12-11T23:34:07.561Z,73.45
2022-12-11T23:36:33.925Z,73.32
2022-12-11T23:39:00.260Z,72.90
2022-12-11T23:41:26.704Z,72.98
2022-12-11T23:43:53.205Z,73.18
2022-12-11T23:46:22.879Z,73.27
2022-12-11T23:48:49.878Z,72.95
2022-12-11T23:51:18.751Z,72.88
2022-12-11T23:53:45.709Z,73.27
2022-12-11T23:56:18.835Z,73.08
2022-12-11T23:58:45.701Z,72.89
